Flight Track Log - Related Links

Times and Time Zones

All times are in EDT time to prevent confusion due to time zone crossing. See the GJS3710 flight status page for this flight to view local times or setup timezone preferences in your user account.

Time Position Orientation Groundspeed Altitude Reporting Facility
EDT Latitude Longitude Course Direction KTS MPH feet Rate Location/Type
Thu 10:14:00 PM 42.2271 -87.1688 66° East  Level FlightAware Approximate
Thu 10:15:00 PM 42.2667 -87.0152 90° East  Level FlightAware Approximate
Thu 10:16:00 PM 42.2739 -86.8503 86° East  Level FlightAware Approximate
Thu 10:17:00 PM 42.2817 -86.6855 86° East  Level FlightAware Approximate
Thu 10:18:00 PM 42.2993 -86.5221 80° East  Level FlightAware Approximate
Thu 10:19:00 PM 42.3000 -86.3570 90° East  Level FlightAware Approximate
Thu 10:20:00 PM 42.3001 -86.1917 90° East  Level FlightAware Approximate
Thu 10:21:00 PM 42.3000 -86.0265 90° East  Level FlightAware Approximate
Thu 10:22:00 PM 42.3001 -85.8613 90° East  Level FlightAware Approximate
Thu 10:23:00 PM 42.3000 -85.6960 90° East  Level FlightAware Approximate
Thu 10:24:00 PM 42.3001 -85.5308 90° East  Level FlightAware Approximate
Thu 10:25:00 PM 42.3001 -85.3655 90° East  Level FlightAware Approximate
Thu 10:26:00 PM 42.3000 -85.2003 90° East  Level FlightAware Approximate
Thu 10:27:00 PM 42.3000 -85.0350 90° East  Level FlightAware Approximate
Thu 10:28:00 PM 42.2834 -84.8812 90° East  Level FlightAware Approximate
Thu 10:29:00 PM 42.2834 -84.7160 90° East  Level FlightAware Approximate
Thu 10:30:00 PM 42.2834 -84.5508 90° East  Level FlightAware Approximate
Thu 10:31:00 PM 42.2854 -84.3859 79° East  Level FlightAware Approximate
Thu 10:32:00 PM 42.3090 -84.2238 79° East  Level FlightAware Approximate
Thu 10:33:00 PM 42.3324 -84.0615 79° East  Level FlightAware Approximate
Thu 10:34:00 PM 42.3556 -83.8992 79° East  Level FlightAware Approximate
Thu 10:35:00 PM 42.3786 -83.7367 79° East  Level FlightAware Approximate
Thu 10:36:00 PM 42.4005 -83.5740 86° East  Level FlightAware Approximate
Thu 10:37:00 PM 42.4089 -83.4088 86° East  Level FlightAware Approximate
Thu 10:38:00 PM 42.4169 -83.2437 88° East  Level FlightAware Approximate
Thu 10:39:00 PM 42.4215 -83.0782 88° East  Level FlightAware Approximate
Thu 10:40:00 PM 42.4258 -82.9128 88° East  Level FlightAware Approximate
Thu 10:41:00 PM 42.4299 -82.7473 88° East  Level FlightAware Approximate
Thu 10:42:00 PM 42.4338 -82.5818 88° East  Level FlightAware Approximate
Thu 10:43:00 PM 42.4375 -82.4162 88° East  Level FlightAware Approximate
Thu 10:44:00 PM 42.4409 -82.2507 88° East  Level FlightAware Approximate
Thu 10:45:00 PM 42.4440 -82.0851 88° East  Level FlightAware Approximate
Thu 10:46:00 PM 42.4470 -81.9196 89° East  Level FlightAware Approximate
Thu 10:47:00 PM 42.4497 -81.7540 89° East  Level FlightAware Approximate
Thu 10:48:00 PM 42.4531 -81.5884 88° East  Level FlightAware Approximate
Thu 10:49:00 PM 42.4565 -81.4228 88° East  Level FlightAware Approximate
Thu 10:50:00 PM 42.4596 -81.2572 88° East  Level FlightAware Approximate
Thu 10:51:00 PM 42.4624 -81.0916 89° East  Level FlightAware Approximate
Thu 10:52:00 PM 42.4651 -80.9259 89° East  Level FlightAware Approximate
Thu 10:53:00 PM 42.4676 -80.7603 89° East  Level FlightAware Approximate
Thu 10:54:00 PM 42.4703 -80.5947 89° East  Level FlightAware Approximate
Thu 10:55:00 PM 42.4728 -80.4290 89° East  Level FlightAware Approximate
Thu 10:56:00 PM 42.4750 -80.2633 89° East  Level FlightAware Approximate
Thu 10:57:00 PM 42.4770 -80.0976 89° East  Level FlightAware Approximate
Thu 10:58:00 PM 42.4787 -79.9320 89° East  Level FlightAware Approximate
Thu 10:59:00 PM 42.4802 -79.7663 89° East  Level FlightAware Approximate
Thu 11:00:00 PM 42.4815 -79.6005 89° East  Level FlightAware Approximate
Thu 11:01:00 PM 42.4825 -79.4348 89° East  Level FlightAware Approximate
Thu 11:02:00 PM 42.4833 -79.2691 90° East  Level FlightAware Approximate
Thu 11:03:00 PM 42.4952 -79.1041 84° East  Level FlightAware Approximate
Thu 11:04:00 PM 42.5069 -78.9391 84° East  Level FlightAware Approximate
Thu 11:05:00 PM 42.5182 -78.7740 85° East  Level FlightAware Approximate
Thu 11:06:00 PM 42.5277 -78.6087 85° East  Level FlightAware Approximate
Thu 11:07:00 PM 42.5370 -78.4433 86° East  Level FlightAware Approximate
Thu 11:08:00 PM 42.5461 -78.2779 86° East  Level FlightAware Approximate
Thu 11:09:00 PM 42.5549 -78.1124 86° East  Level FlightAware Approximate
Thu 11:10:00 PM 42.5634 -77.9469 86° East  Level FlightAware Approximate
Thu 11:11:00 PM 42.5736 -77.7816 85° East  Level FlightAware Approximate
Thu 11:12:00 PM 42.5847 -77.6163 85° East  Level FlightAware Approximate
Thu 11:13:00 PM 42.5956 -77.4509 85° East  Level FlightAware Approximate
Thu 11:14:00 PM 42.6070 -77.2856 84° East  Level FlightAware Approximate
Thu 11:15:00 PM 42.6181 -77.1202 86° East  Level FlightAware Approximate
Thu 11:16:00 PM 42.6261 -76.9545 86° East  Level FlightAware Approximate
Thu 11:17:00 PM 42.6333 -76.7887 90° East  Level FlightAware Approximate
Thu 11:18:00 PM 42.6393 -76.6230 84° East  Level FlightAware Approximate
Thu 11:19:00 PM 42.6500 -76.4576 90° East  Level FlightAware Approximate
Thu 11:20:00 PM 42.6514 -76.2916 77° East  Level FlightAware Approximate
Thu 11:21:00 PM 42.6667 -76.1278 90° East  Level FlightAware Approximate
Thu 11:22:00 PM 42.6667 -75.9616 90° East  Level FlightAware Approximate
Thu 11:23:00 PM 42.6804 -75.7978 75° East  Level FlightAware Approximate
Thu 11:24:00 PM 42.6834 -75.6321 90° East  Level FlightAware Approximate
Thu 11:25:00 PM 42.6833 -75.4659 90° East  Level FlightAware Approximate
Thu 11:26:00 PM 42.6908 -75.3000 85° East  Level FlightAware Approximate
Thu 11:27:00 PM 42.7013 -75.1344 85° East  Level FlightAware Approximate
Thu 11:28:00 PM 42.7115 -74.9686 85° East  Level FlightAware Approximate
Thu 11:29:00 PM 42.7167 -74.8026 90° East  Level FlightAware Approximate
Thu 11:30:00 PM 42.7167 -74.6362 90° East  Level FlightAware Approximate
Thu 11:31:00 PM 42.7233 -74.4704 83° East  Level FlightAware Approximate
Thu 11:32:00 PM 42.7334 -74.3048 90° East  Level FlightAware Approximate
Thu 11:33:00 PM 42.7333 -74.1384 90° East  Level FlightAware Approximate
Thu 11:34:00 PM 42.7333 -73.9720 90° East  Level FlightAware Approximate
Thu 11:35:00 PM 42.7333 -73.8056 90° East  Level FlightAware Approximate
Thu 11:36:00 PM 42.7333 -73.8000 90° East  Level FlightAware Approximate
Thu 11:37:00 PM 42.7491 -73.8020 90° East  Level Estimated
Thu 11:38:00 PM 42.7491 -73.8020 90° East  Level Estimated
Thu 11:39:00 PM 42.7491 -73.8020 90° East  Level Estimated

Login

Don't have an account? Register now (free) for customized features, flight alerts, and more!